sensor_id;sensor_type;location;lat;lon;timestamp;pressure;altitude;pressure_sealevel;temperature;humidity
36138;BME280;67787;50.074;21.904;2023-03-19T00:00:36;99329.02;;;4.96;47.36
36138;BME280;67787;50.074;21.904;2023-03-19T00:03:23;99326.18;;;4.92;47.20
36138;BME280;67787;50.074;21.904;2023-03-19T00:05:52;99328.61;;;4.89;47.37
36138;BME280;67787;50.074;21.904;2023-03-19T00:08:18;99323.83;;;4.86;47.33
36138;BME280;67787;50.074;21.904;2023-03-19T00:10:45;99321.39;;;4.86;47.30
36138;BME280;67787;50.074;21.904;2023-03-19T00:13:12;99321.51;;;4.87;47.48
36138;BME280;67787;50.074;21.904;2023-03-19T00:15:39;99327.11;;;4.88;47.29
36138;BME280;67787;50.074;21.904;2023-03-19T00:18:06;99324.14;;;4.87;47.45
36138;BME280;67787;50.074;21.904;2023-03-19T00:20:34;99321.87;;;4.87;47.43
36138;BME280;67787;50.074;21.904;2023-03-19T00:23:01;99319.00;;;4.88;47.53
36138;BME280;67787;50.074;21.904;2023-03-19T00:25:27;99316.08;;;4.90;47.62
36138;BME280;67787;50.074;21.904;2023-03-19T00:27:54;99316.99;;;4.89;47.59
36138;BME280;67787;50.074;21.904;2023-03-19T00:30:21;99317.57;;;4.88;47.59
36138;BME280;67787;50.074;21.904;2023-03-19T00:32:49;99314.84;;;4.87;47.79
36138;BME280;67787;50.074;21.904;2023-03-19T00:35:17;99316.36;;;4.88;47.80
36138;BME280;67787;50.074;21.904;2023-03-19T00:37:43;99310.32;;;4.86;47.74
36138;BME280;67787;50.074;21.904;2023-03-19T00:40:10;99309.52;;;4.84;47.81
36138;BME280;67787;50.074;21.904;2023-03-19T00:42:37;99315.73;;;4.87;47.68
36138;BME280;67787;50.074;21.904;2023-03-19T00:45:05;99311.50;;;4.87;47.76
36138;BME280;67787;50.074;21.904;2023-03-19T00:47:32;99311.95;;;4.85;47.86
36138;BME280;67787;50.074;21.904;2023-03-19T00:49:59;99310.96;;;4.83;47.78
36138;BME280;67787;50.074;21.904;2023-03-19T00:52:26;99310.50;;;4.82;47.84
36138;BME280;67787;50.074;21.904;2023-03-19T00:54:52;99313.84;;;4.82;48.00
36138;BME280;67787;50.074;21.904;2023-03-19T00:57:19;99308.63;;;4.80;48.00
36138;BME280;67787;50.074;21.904;2023-03-19T00:59:46;99310.08;;;4.83;48.18
36138;BME280;67787;50.074;21.904;2023-03-19T01:02:13;99305.82;;;4.84;48.03
36138;BME280;67787;50.074;21.904;2023-03-19T01:04:41;99309.84;;;4.85;48.06
36138;BME280;67787;50.074;21.904;2023-03-19T01:07:10;99306.30;;;4.86;48.10
36138;BME280;67787;50.074;21.904;2023-03-19T01:09:36;99304.91;;;4.88;48.17
36138;BME280;67787;50.074;21.904;2023-03-19T01:12:03;99306.73;;;4.91;48.21
36138;BME280;67787;50.074;21.904;2023-03-19T01:14:31;99305.02;;;4.94;48.09
36138;BME280;67787;50.074;21.904;2023-03-19T01:16:57;99304.63;;;4.95;48.15
36138;BME280;67787;50.074;21.904;2023-03-19T01:19:25;99306.23;;;4.99;48.24
36138;BME280;67787;50.074;21.904;2023-03-19T01:21:52;99306.95;;;5.02;48.40
36138;BME280;67787;50.074;21.904;2023-03-19T01:24:19;99310.08;;;5.07;48.32
36138;BME280;67787;50.074;21.904;2023-03-19T01:26:46;99311.11;;;5.07;48.33
36138;BME280;67787;50.074;21.904;2023-03-19T01:29:13;99310.23;;;5.07;48.26
36138;BME280;67787;50.074;21.904;2023-03-19T01:31:39;99313.01;;;5.08;48.38
36138;BME280;67787;50.074;21.904;2023-03-19T01:34:07;99316.84;;;5.09;48.38
36138;BME280;67787;50.074;21.904;2023-03-19T01:36:33;99319.19;;;5.08;48.41
36138;BME280;67787;50.074;21.904;2023-03-19T01:39:00;99325.10;;;5.05;48.42
36138;BME280;67787;50.074;21.904;2023-03-19T01:41:26;99323.02;;;5.04;48.41
36138;BME280;67787;50.074;21.904;2023-03-19T01:43:54;99323.48;;;5.02;48.46
36138;BME280;67787;50.074;21.904;2023-03-19T01:46:26;99328.21;;;4.98;48.56
36138;BME280;67787;50.074;21.904;2023-03-19T01:49:00;99327.34;;;4.94;48.55
36138;BME280;67787;50.074;21.904;2023-03-19T01:51:29;99328.38;;;4.90;48.52
36138;BME280;67787;50.074;21.904;2023-03-19T01:54:01;99329.39;;;4.84;48.60
36138;BME280;67787;50.074;21.904;2023-03-19T01:56:35;99327.09;;;4.76;48.48
36138;BME280;67787;50.074;21.904;2023-03-19T01:59:10;99321.73;;;4.70;48.53
36138;BME280;67787;50.074;21.904;2023-03-19T02:01:45;99321.65;;;4.64;48.72
36138;BME280;67787;50.074;21.904;2023-03-19T02:04:13;99323.55;;;4.60;48.61
36138;BME280;67787;50.074;21.904;2023-03-19T02:06:41;99323.46;;;4.58;48.63
36138;BME280;67787;50.074;21.904;2023-03-19T02:09:09;99321.44;;;4.57;48.64
36138;BME280;67787;50.074;21.904;2023-03-19T02:11:36;99314.80;;;4.56;48.73
36138;BME280;67787;50.074;21.904;2023-03-19T02:14:03;99319.86;;;4.56;48.94
36138;BME280;67787;50.074;21.904;2023-03-19T02:16:30;99316.85;;;4.57;48.76
36138;BME280;67787;50.074;21.904;2023-03-19T02:18:57;99321.08;;;4.61;48.79
36138;BME280;67787;50.074;21.904;2023-03-19T02:21:24;99324.02;;;4.62;48.94
36138;BME280;67787;50.074;21.904;2023-03-19T02:24:02;99319.11;;;4.62;48.88
36138;BME280;67787;50.074;21.904;2023-03-19T02:26:33;99319.39;;;4.64;48.95
36138;BME280;67787;50.074;21.904;2023-03-19T02:29:01;99323.02;;;4.65;48.88
36138;BME280;67787;50.074;21.904;2023-03-19T02:31:29;99324.82;;;4.64;49.00
36138;BME280;67787;50.074;21.904;2023-03-19T02:34:05;99330.29;;;4.63;49.03
36138;BME280;67787;50.074;21.904;2023-03-19T02:36:49;99332.73;;;4.64;49.07
36138;BME280;67787;50.074;21.904;2023-03-19T02:41:57;99333.48;;;4.63;49.01
36138;BME280;67787;50.074;21.904;2023-03-19T02:44:27;99334.22;;;4.62;49.24
36138;BME280;67787;50.074;21.904;2023-03-19T02:46:53;99334.95;;;4.61;49.12
36138;BME280;67787;50.074;21.904;2023-03-19T02:49:21;99334.20;;;4.58;49.14
36138;BME280;67787;50.074;21.904;2023-03-19T02:51:48;99337.04;;;4.58;49.15
36138;BME280;67787;50.074;21.904;2023-03-19T02:54:15;99333.52;;;4.58;49.29
36138;BME280;67787;50.074;21.904;2023-03-19T02:56:41;99335.36;;;4.56;49.30
36138;BME280;67787;50.074;21.904;2023-03-19T02:59:08;99331.04;;;4.54;49.33
36138;BME280;67787;50.074;21.904;2023-03-19T03:01:35;99334.61;;;4.53;49.22
36138;BME280;67787;50.074;21.904;2023-03-19T03:04:02;99327.96;;;4.52;49.39
36138;BME280;67787;50.074;21.904;2023-03-19T03:06:30;99332.75;;;4.51;49.51
36138;BME280;67787;50.074;21.904;2023-03-19T03:08:57;99330.41;;;4.53;49.42
36138;BME280;67787;50.074;21.904;2023-03-19T03:11:24;99330.15;;;4.54;49.39
36138;BME280;67787;50.074;21.904;2023-03-19T03:13:51;99329.59;;;4.55;49.58
36138;BME280;67787;50.074;21.904;2023-03-19T03:16:18;99333.41;;;4.56;49.60
36138;BME280;67787;50.074;21.904;2023-03-19T03:18:45;99338.99;;;4.57;49.51
36138;BME280;67787;50.074;21.904;2023-03-19T03:21:12;99340.21;;;4.57;49.64
36138;BME280;67787;50.074;21.904;2023-03-19T03:23:39;99339.57;;;4.56;49.47
36138;BME280;67787;50.074;21.904;2023-03-19T03:26:06;99336.47;;;4.54;49.78
36138;BME280;67787;50.074;21.904;2023-03-19T03:28:35;99338.05;;;4.54;49.63
36138;BME280;67787;50.074;21.904;2023-03-19T03:31:02;99341.83;;;4.52;49.62
36138;BME280;67787;50.074;21.904;2023-03-19T03:33:28;99343.80;;;4.51;49.68
36138;BME280;67787;50.074;21.904;2023-03-19T03:36:03;99343.34;;;4.50;49.78
36138;BME280;67787;50.074;21.904;2023-03-19T03:38:30;99348.83;;;4.48;49.72
36138;BME280;67787;50.074;21.904;2023-03-19T03:40:58;99347.73;;;4.45;49.84
36138;BME280;67787;50.074;21.904;2023-03-19T03:43:25;99345.86;;;4.44;49.80
36138;BME280;67787;50.074;21.904;2023-03-19T03:45:52;99348.63;;;4.41;49.84
36138;BME280;67787;50.074;21.904;2023-03-19T03:48:19;99354.19;;;4.38;49.74
36138;BME280;67787;50.074;21.904;2023-03-19T03:50:47;99353.73;;;4.37;49.94
36138;BME280;67787;50.074;21.904;2023-03-19T03:53:13;99359.57;;;4.36;49.89
36138;BME280;67787;50.074;21.904;2023-03-19T03:55:40;99356.38;;;4.37;49.89
36138;BME280;67787;50.074;21.904;2023-03-19T03:58:10;99359.97;;;4.35;49.83
36138;BME280;67787;50.074;21.904;2023-03-19T04:00:38;99355.68;;;4.32;50.00
36138;BME280;67787;50.074;21.904;2023-03-19T04:03:05;99358.89;;;4.30;49.98
36138;BME280;67787;50.074;21.904;2023-03-19T04:05:32;99362.48;;;4.29;50.08
36138;BME280;67787;50.074;21.904;2023-03-19T04:07:59;99361.30;;;4.28;49.96
36138;BME280;67787;50.074;21.904;2023-03-19T04:10:26;99350.98;;;4.27;50.02
36138;BME280;67787;50.074;21.904;2023-03-19T04:12:53;99354.16;;;4.26;50.06
36138;BME280;67787;50.074;21.904;2023-03-19T04:15:19;99350.77;;;4.28;50.20
36138;BME280;67787;50.074;21.904;2023-03-19T04:17:46;99354.32;;;4.27;50.24
36138;BME280;67787;50.074;21.904;2023-03-19T04:20:13;99353.31;;;4.26;50.08
36138;BME280;67787;50.074;21.904;2023-03-19T04:22:44;99355.13;;;4.24;50.13
36138;BME280;67787;50.074;21.904;2023-03-19T04:25:11;99355.91;;;4.23;49.93
36138;BME280;67787;50.074;21.904;2023-03-19T04:27:37;99359.77;;;4.22;50.29
36138;BME280;67787;50.074;21.904;2023-03-19T04:30:05;99353.40;;;4.23;50.21
36138;BME280;67787;50.074;21.904;2023-03-19T04:32:32;99352.41;;;4.22;50.16
36138;BME280;67787;50.074;21.904;2023-03-19T04:35:00;99358.09;;;4.21;50.12
36138;BME280;67787;50.074;21.904;2023-03-19T04:37:28;99354.83;;;4.19;50.18
36138;BME280;67787;50.074;21.904;2023-03-19T04:39:55;99354.64;;;4.20;50.36
36138;BME280;67787;50.074;21.904;2023-03-19T04:42:22;99354.88;;;4.22;50.43
36138;BME280;67787;50.074;21.904;2023-03-19T04:44:48;99355.12;;;4.24;50.35
36138;BME280;67787;50.074;21.904;2023-03-19T04:47:15;99355.16;;;4.28;50.30
36138;BME280;67787;50.074;21.904;2023-03-19T04:49:42;99355.55;;;4.31;50.27
36138;BME280;67787;50.074;21.904;2023-03-19T04:52:08;99357.26;;;4.32;50.56
36138;BME280;67787;50.074;21.904;2023-03-19T04:54:35;99355.77;;;4.34;50.34
36138;BME280;67787;50.074;21.904;2023-03-19T04:57:02;99354.98;;;4.36;50.53
36138;BME280;67787;50.074;21.904;2023-03-19T04:59:28;99352.46;;;4.38;50.37
36138;BME280;67787;50.074;21.904;2023-03-19T05:01:55;99349.20;;;4.40;50.51
36138;BME280;67787;50.074;21.904;2023-03-19T05:04:25;99350.70;;;4.42;50.50
36138;BME280;67787;50.074;21.904;2023-03-19T05:06:52;99349.20;;;4.44;50.48
36138;BME280;67787;50.074;21.904;2023-03-19T05:09:19;99352.54;;;4.48;50.58
36138;BME280;67787;50.074;21.904;2023-03-19T05:11:45;99352.90;;;4.52;50.49
36138;BME280;67787;50.074;21.904;2023-03-19T05:14:12;99351.14;;;4.56;50.56
36138;BME280;67787;50.074;21.904;2023-03-19T05:16:38;99351.94;;;4.58;50.63
36138;BME280;67787;50.074;21.904;2023-03-19T05:19:05;99350.74;;;4.61;50.69
36138;BME280;67787;50.074;21.904;2023-03-19T05:21:32;99350.19;;;4.66;50.64
36138;BME280;67787;50.074;21.904;2023-03-19T05:23:58;99352.84;;;4.70;50.59
36138;BME280;67787;50.074;21.904;2023-03-19T05:26:25;99353.39;;;4.73;50.56
36138;BME280;67787;50.074;21.904;2023-03-19T05:28:52;99352.45;;;4.79;50.71
36138;BME280;67787;50.074;21.904;2023-03-19T05:31:19;99350.11;;;4.84;50.60
36138;BME280;67787;50.074;21.904;2023-03-19T05:33:45;99352.11;;;4.90;50.72
36138;BME280;67787;50.074;21.904;2023-03-19T05:36:12;99348.63;;;4.98;50.94
36138;BME280;67787;50.074;21.904;2023-03-19T05:38:41;99353.16;;;5.07;50.85
36138;BME280;67787;50.074;21.904;2023-03-19T05:41:08;99351.86;;;5.12;50.79
36138;BME280;67787;50.074;21.904;2023-03-19T05:43:34;99354.16;;;5.15;50.87
36138;BME280;67787;50.074;21.904;2023-03-19T05:46:01;99351.55;;;5.18;50.82
36138;BME280;67787;50.074;21.904;2023-03-19T05:48:28;99352.73;;;5.24;50.94
36138;BME280;67787;50.074;21.904;2023-03-19T05:50:55;99356.41;;;5.31;50.96
36138;BME280;67787;50.074;21.904;2023-03-19T05:53:22;99352.48;;;5.36;50.92
36138;BME280;67787;50.074;21.904;2023-03-19T05:55:49;99357.14;;;5.42;50.91
36138;BME280;67787;50.074;21.904;2023-03-19T05:58:16;99357.64;;;5.47;51.01
36138;BME280;67787;50.074;21.904;2023-03-19T06:00:42;99354.72;;;5.53;50.94
36138;BME280;67787;50.074;21.904;2023-03-19T06:03:09;99356.48;;;5.60;51.05
36138;BME280;67787;50.074;21.904;2023-03-19T06:05:37;99356.59;;;5.66;50.97
36138;BME280;67787;50.074;21.904;2023-03-19T06:08:04;99358.23;;;5.68;51.02
36138;BME280;67787;50.074;21.904;2023-03-19T06:10:35;99360.19;;;5.75;51.08
36138;BME280;67787;50.074;21.904;2023-03-19T06:13:02;99362.08;;;5.79;51.06
36138;BME280;67787;50.074;21.904;2023-03-19T06:15:30;99364.14;;;5.84;51.09
36138;BME280;67787;50.074;21.904;2023-03-19T06:18:00;99367.30;;;5.92;51.14
36138;BME280;67787;50.074;21.904;2023-03-19T06:20:29;99369.23;;;6.00;51.07
36138;BME280;67787;50.074;21.904;2023-03-19T06:22:56;99369.02;;;6.04;51.04
36138;BME280;67787;50.074;21.904;2023-03-19T06:25:24;99370.08;;;6.11;51.15
36138;BME280;67787;50.074;21.904;2023-03-19T06:27:50;99369.63;;;6.17;51.19
36138;BME280;67787;50.074;21.904;2023-03-19T06:30:17;99371.63;;;6.23;51.12
36138;BME280;67787;50.074;21.904;2023-03-19T06:32:44;99367.27;;;6.26;51.17
36138;BME280;67787;50.074;21.904;2023-03-19T06:35:10;99373.20;;;6.30;51.17
36138;BME280;67787;50.074;21.904;2023-03-19T06:37:37;99369.42;;;6.35;51.10
36138;BME280;67787;50.074;21.904;2023-03-19T06:40:05;99367.17;;;6.42;51.12
36138;BME280;67787;50.074;21.904;2023-03-19T06:42:31;99365.56;;;6.49;51.17
36138;BME280;67787;50.074;21.904;2023-03-19T06:44:58;99366.30;;;6.56;51.17
36138;BME280;67787;50.074;21.904;2023-03-19T06:47:28;99371.73;;;6.63;51.27
36138;BME280;67787;50.074;21.904;2023-03-19T06:49:54;99372.59;;;6.70;51.15
36138;BME280;67787;50.074;21.904;2023-03-19T06:52:21;99372.86;;;6.79;51.27
36138;BME280;67787;50.074;21.904;2023-03-19T06:54:49;99378.69;;;6.85;51.29
36138;BME280;67787;50.074;21.904;2023-03-19T06:57:15;99377.59;;;6.93;51.37
36138;BME280;67787;50.074;21.904;2023-03-19T06:59:42;99371.91;;;7.00;51.43
36138;BME280;67787;50.074;21.904;2023-03-19T07:02:10;99370.59;;;7.06;51.31
36138;BME280;67787;50.074;21.904;2023-03-19T07:04:37;99370.41;;;7.15;51.47
36138;BME280;67787;50.074;21.904;2023-03-19T07:07:05;99368.44;;;7.26;51.50
36138;BME280;67787;50.074;21.904;2023-03-19T07:09:32;99369.48;;;7.36;51.35
36138;BME280;67787;50.074;21.904;2023-03-19T07:11:58;99370.30;;;7.44;51.42
36138;BME280;67787;50.074;21.904;2023-03-19T07:14:25;99368.36;;;7.51;51.58
36138;BME280;67787;50.074;21.904;2023-03-19T07:16:52;99371.47;;;7.58;51.36
36138;BME280;67787;50.074;21.904;2023-03-19T07:19:19;99369.56;;;7.61;51.47
36138;BME280;67787;50.074;21.904;2023-03-19T07:21:46;99372.27;;;7.69;51.51
36138;BME280;67787;50.074;21.904;2023-03-19T07:24:13;99377.08;;;7.74;51.41
36138;BME280;67787;50.074;21.904;2023-03-19T07:26:39;99374.28;;;7.80;51.35
36138;BME280;67787;50.074;21.904;2023-03-19T07:29:07;99372.02;;;7.89;51.45
36138;BME280;67787;50.074;21.904;2023-03-19T07:31:35;99369.06;;;7.95;51.37
36138;BME280;67787;50.074;21.904;2023-03-19T07:34:02;99368.34;;;8.01;51.35
36138;BME280;67787;50.074;21.904;2023-03-19T07:36:29;99365.76;;;8.03;51.41
36138;BME280;67787;50.074;21.904;2023-03-19T07:38:56;99367.71;;;8.06;51.44
36138;BME280;67787;50.074;21.904;2023-03-19T07:41:22;99365.30;;;8.14;51.53
36138;BME280;67787;50.074;21.904;2023-03-19T07:43:49;99367.11;;;8.23;51.50
36138;BME280;67787;50.074;21.904;2023-03-19T07:46:16;99366.58;;;8.29;51.48
36138;BME280;67787;50.074;21.904;2023-03-19T07:48:43;99363.58;;;8.32;51.44
36138;BME280;67787;50.074;21.904;2023-03-19T07:51:09;99368.52;;;8.38;51.50
36138;BME280;67787;50.074;21.904;2023-03-19T07:53:36;99371.41;;;8.43;51.42
36138;BME280;67787;50.074;21.904;2023-03-19T07:56:03;99373.46;;;8.47;51.51
36138;BME280;67787;50.074;21.904;2023-03-19T07:58:31;99370.62;;;8.57;51.62
36138;BME280;67787;50.074;21.904;2023-03-19T08:00:58;99375.08;;;8.66;51.45
36138;BME280;67787;50.074;21.904;2023-03-19T08:03:25;99377.55;;;8.68;51.46
36138;BME280;67787;50.074;21.904;2023-03-19T08:05:51;99374.22;;;8.71;51.44
36138;BME280;67787;50.074;21.904;2023-03-19T08:08:18;99373.10;;;8.75;51.59
36138;BME280;67787;50.074;21.904;2023-03-19T08:10:47;99373.33;;;8.86;51.55
36138;BME280;67787;50.074;21.904;2023-03-19T08:13:15;99372.35;;;8.93;51.36
36138;BME280;67787;50.074;21.904;2023-03-19T08:15:45;99370.27;;;8.98;51.42
36138;BME280;67787;50.074;21.904;2023-03-19T08:18:12;99373.48;;;9.04;51.61
36138;BME280;67787;50.074;21.904;2023-03-19T08:20:39;99371.98;;;9.08;51.31
36138;BME280;67787;50.074;21.904;2023-03-19T08:23:06;99368.59;;;9.12;51.55
36138;BME280;67787;50.074;21.904;2023-03-19T08:25:34;99367.32;;;9.18;51.45
36138;BME280;67787;50.074;21.904;2023-03-19T08:28:04;99369.56;;;9.25;51.38
36138;BME280;67787;50.074;21.904;2023-03-19T08:30:31;99363.52;;;9.28;51.37
36138;BME280;67787;50.074;21.904;2023-03-19T08:32:59;99365.61;;;9.29;51.47
36138;BME280;67787;50.074;21.904;2023-03-19T08:35:27;99368.89;;;9.33;51.54
36138;BME280;67787;50.074;21.904;2023-03-19T08:37:54;99364.35;;;9.37;51.35
36138;BME280;67787;50.074;21.904;2023-03-19T08:40:23;99366.30;;;9.40;51.34
36138;BME280;67787;50.074;21.904;2023-03-19T08:42:50;99366.02;;;9.45;51.31
36138;BME280;67787;50.074;21.904;2023-03-19T08:45:17;99357.53;;;9.47;51.42
36138;BME280;67787;50.074;21.904;2023-03-19T08:47:44;99360.26;;;9.49;51.36
36138;BME280;67787;50.074;21.904;2023-03-19T08:50:12;99361.98;;;9.49;51.33
36138;BME280;67787;50.074;21.904;2023-03-19T08:52:38;99364.38;;;9.54;51.35
36138;BME280;67787;50.074;21.904;2023-03-19T08:55:06;99364.34;;;9.63;51.44
36138;BME280;67787;50.074;21.904;2023-03-19T08:57:34;99360.00;;;9.70;51.54
36138;BME280;67787;50.074;21.904;2023-03-19T09:00:02;99360.73;;;9.75;51.39
36138;BME280;67787;50.074;21.904;2023-03-19T09:02:32;99354.69;;;9.78;51.31
36138;BME280;67787;50.074;21.904;2023-03-19T09:04:59;99359.20;;;9.85;51.40
36138;BME280;67787;50.074;21.904;2023-03-19T09:07:25;99357.42;;;9.88;51.35
36138;BME280;67787;50.074;21.904;2023-03-19T09:09:52;99355.02;;;9.90;51.33
36138;BME280;67787;50.074;21.904;2023-03-19T09:12:18;99348.96;;;9.93;51.31
36138;BME280;67787;50.074;21.904;2023-03-19T09:14:47;99356.87;;;9.99;51.38
36138;BME280;67787;50.074;21.904;2023-03-19T09:17:13;99360.25;;;10.04;51.25
36138;BME280;67787;50.074;21.904;2023-03-19T09:19:40;99358.81;;;10.07;51.13
36138;BME280;67787;50.074;21.904;2023-03-19T09:22:07;99359.98;;;10.11;51.19
36138;BME280;67787;50.074;21.904;2023-03-19T09:24:34;99356.09;;;10.14;51.15
36138;BME280;67787;50.074;21.904;2023-03-19T09:27:01;99360.92;;;10.24;51.33
36138;BME280;67787;50.074;21.904;2023-03-19T09:29:29;99351.84;;;10.33;51.12
36138;BME280;67787;50.074;21.904;2023-03-19T09:31:55;99349.60;;;10.34;51.03
36138;BME280;67787;50.074;21.904;2023-03-19T09:34:22;99350.66;;;10.34;50.98
36138;BME280;67787;50.074;21.904;2023-03-19T09:36:49;99346.19;;;10.35;51.19
36138;BME280;67787;50.074;21.904;2023-03-19T09:39:15;99344.04;;;10.38;51.03
36138;BME280;67787;50.074;21.904;2023-03-19T09:44:47;99332.98;;;10.45;50.97
36138;BME280;67787;50.074;21.904;2023-03-19T09:47:30;99328.91;;;10.45;51.02
36138;BME280;67787;50.074;21.904;2023-03-19T09:50:00;99332.30;;;10.50;51.08
36138;BME280;67787;50.074;21.904;2023-03-19T09:52:40;99329.44;;;10.50;50.92
36138;BME280;67787;50.074;21.904;2023-03-19T10:02:42;99326.11;;;10.62;50.77
36138;BME280;67787;50.074;21.904;2023-03-19T10:05:35;99331.35;;;10.71;50.78
36138;BME280;67787;50.074;21.904;2023-03-19T10:08:28;99333.02;;;10.73;50.70
36138;BME280;67787;50.074;21.904;2023-03-19T10:16:51;99317.15;;;10.79;50.69
36138;BME280;67787;50.074;21.904;2023-03-19T10:19:41;99314.98;;;10.87;50.69
36138;BME280;67787;50.074;21.904;2023-03-19T10:22:17;99319.88;;;10.96;50.66
36138;BME280;67787;50.074;21.904;2023-03-19T10:24:47;99315.30;;;11.06;50.45
36138;BME280;67787;50.074;21.904;2023-03-19T10:27:19;99311.48;;;11.17;50.56
36138;BME280;67787;50.074;21.904;2023-03-19T10:29:50;99309.50;;;11.23;50.63
36138;BME280;67787;50.074;21.904;2023-03-19T10:32:20;99307.30;;;11.31;50.65
36138;BME280;67787;50.074;21.904;2023-03-19T10:35:00;99302.32;;;11.36;50.55
36138;BME280;67787;50.074;21.904;2023-03-19T10:37:30;99300.48;;;11.35;50.42
36138;BME280;67787;50.074;21.904;2023-03-19T10:40:09;99296.29;;;11.39;50.46
36138;BME280;67787;50.074;21.904;2023-03-19T10:49:14;99291.28;;;11.61;50.38
36138;BME280;67787;50.074;21.904;2023-03-19T10:51:44;99289.97;;;11.72;50.30
36138;BME280;67787;50.074;21.904;2023-03-19T10:54:22;99288.09;;;11.83;50.45
36138;BME280;67787;50.074;21.904;2023-03-19T10:56:50;99284.24;;;11.87;50.29
36138;BME280;67787;50.074;21.904;2023-03-19T11:02:01;99275.41;;;11.94;50.20
36138;BME280;67787;50.074;21.904;2023-03-19T11:04:32;99268.27;;;11.96;50.03
36138;BME280;67787;50.074;21.904;2023-03-19T11:07:30;99261.48;;;12.02;50.22
36138;BME280;67787;50.074;21.904;2023-03-19T11:13:03;99258.63;;;12.18;49.90
36138;BME280;67787;50.074;21.904;2023-03-19T11:15:34;99254.44;;;12.25;49.83
36138;BME280;67787;50.074;21.904;2023-03-19T11:18:22;99249.54;;;12.28;49.86
36138;BME280;67787;50.074;21.904;2023-03-19T11:20:56;99244.20;;;12.31;49.81
36138;BME280;67787;50.074;21.904;2023-03-19T11:23:29;99240.34;;;12.39;49.78
36138;BME280;67787;50.074;21.904;2023-03-19T11:26:00;99234.04;;;12.47;49.77
36138;BME280;67787;50.074;21.904;2023-03-19T11:28:27;99226.18;;;12.55;49.70
36138;BME280;67787;50.074;21.904;2023-03-19T11:41:43;99208.13;;;12.49;49.41
36138;BME280;67787;50.074;21.904;2023-03-19T11:47:24;99203.98;;;12.59;49.09
36138;BME280;67787;50.074;21.904;2023-03-19T11:52:56;99205.35;;;12.59;48.93
36138;BME280;67787;50.074;21.904;2023-03-19T11:55:36;99204.67;;;12.59;48.90
36138;BME280;67787;50.074;21.904;2023-03-19T11:58:22;99198.85;;;12.63;48.91
36138;BME280;67787;50.074;21.904;2023-03-19T12:01:06;99196.42;;;12.71;49.03
36138;BME280;67787;50.074;21.904;2023-03-19T12:11:53;99176.96;;;13.12;48.68
36138;BME280;67787;50.074;21.904;2023-03-19T12:17:11;99169.08;;;13.41;48.58
36138;BME280;67787;50.074;21.904;2023-03-19T12:20:06;99169.11;;;13.56;48.67
36138;BME280;67787;50.074;21.904;2023-03-19T12:23:11;99166.48;;;13.64;48.62
36138;BME280;67787;50.074;21.904;2023-03-19T12:25:47;99153.86;;;13.70;48.39
36138;BME280;67787;50.074;21.904;2023-03-19T12:28:29;99156.80;;;13.72;48.39
36138;BME280;67787;50.074;21.904;2023-03-19T12:31:09;99155.17;;;13.69;48.16
36138;BME280;67787;50.074;21.904;2023-03-19T12:33:43;99153.30;;;13.62;48.13
36138;BME280;67787;50.074;21.904;2023-03-19T12:36:16;99152.89;;;13.51;48.08
36138;BME280;67787;50.074;21.904;2023-03-19T12:38:50;99147.69;;;13.44;48.05
36138;BME280;67787;50.074;21.904;2023-03-19T12:41:22;99146.73;;;13.40;47.69
36138;BME280;67787;50.074;21.904;2023-03-19T12:51:36;99134.15;;;13.39;47.84
36138;BME280;67787;50.074;21.904;2023-03-19T12:54:09;99130.32;;;13.38;47.60
36138;BME280;67787;50.074;21.904;2023-03-19T12:56:49;99126.98;;;13.35;47.64
36138;BME280;67787;50.074;21.904;2023-03-19T12:59:46;99128.34;;;13.36;47.71
36138;BME280;67787;50.074;21.904;2023-03-19T13:02:35;99128.29;;;13.39;47.55
36138;BME280;67787;50.074;21.904;2023-03-19T13:08:10;99135.98;;;13.47;47.59
36138;BME280;67787;50.074;21.904;2023-03-19T13:10:43;99133.34;;;13.47;47.25
36138;BME280;67787;50.074;21.904;2023-03-19T13:13:30;99129.13;;;13.53;47.26
36138;BME280;67787;50.074;21.904;2023-03-19T13:21:55;99118.13;;;13.54;47.25
36138;BME280;67787;50.074;21.904;2023-03-19T13:24:30;99114.94;;;13.57;47.09
36138;BME280;67787;50.074;21.904;2023-03-19T13:27:02;99115.86;;;13.65;47.01
36138;BME280;67787;50.074;21.904;2023-03-19T13:29:31;99105.96;;;13.69;46.68
36138;BME280;67787;50.074;21.904;2023-03-19T13:32:24;99104.45;;;13.75;46.96
36138;BME280;67787;50.074;21.904;2023-03-19T13:35:16;99100.07;;;13.76;46.82
36138;BME280;67787;50.074;21.904;2023-03-19T13:37:46;99097.06;;;13.76;46.90
36138;BME280;67787;50.074;21.904;2023-03-19T13:43:38;99097.17;;;13.85;46.80
36138;BME280;67787;50.074;21.904;2023-03-19T13:48:50;99100.70;;;13.88;46.37
36138;BME280;67787;50.074;21.904;2023-03-19T13:59:36;99088.66;;;14.07;46.53
36138;BME280;67787;50.074;21.904;2023-03-19T14:05:16;99086.88;;;14.14;46.54
36138;BME280;67787;50.074;21.904;2023-03-19T14:07:49;99082.81;;;14.13;46.43
36138;BME280;67787;50.074;21.904;2023-03-19T14:10:31;99086.20;;;14.16;46.22
36138;BME280;67787;50.074;21.904;2023-03-19T14:13:06;99089.69;;;14.14;46.20
36138;BME280;67787;50.074;21.904;2023-03-19T14:15:39;99082.33;;;14.13;46.14
36138;BME280;67787;50.074;21.904;2023-03-19T14:18:12;99079.92;;;14.10;46.18
36138;BME280;67787;50.074;21.904;2023-03-19T14:20:52;99085.65;;;14.05;46.10
36138;BME280;67787;50.074;21.904;2023-03-19T14:23:26;99075.42;;;13.98;46.00
36138;BME280;67787;50.074;21.904;2023-03-19T14:28:59;99066.64;;;13.84;45.85
36138;BME280;67787;50.074;21.904;2023-03-19T14:36:43;99064.33;;;13.69;45.76
36138;BME280;67787;50.074;21.904;2023-03-19T14:39:22;99062.48;;;13.64;45.73
36138;BME280;67787;50.074;21.904;2023-03-19T14:41:57;99060.17;;;13.57;45.72
36138;BME280;67787;50.074;21.904;2023-03-19T14:47:24;99061.90;;;13.45;45.48
36138;BME280;67787;50.074;21.904;2023-03-19T14:53:16;99056.40;;;13.32;45.47
36138;BME280;67787;50.074;21.904;2023-03-19T14:55:49;99060.08;;;13.26;45.43
36138;BME280;67787;50.074;21.904;2023-03-19T14:58:21;99060.67;;;13.23;45.45